createdAt,value
2023-03-01T00:03:28.548Z,994.9
2023-03-01T00:22:44.966Z,994.7
2023-03-01T00:42:02.164Z,994.6
2023-03-01T01:01:20.062Z,994.5
2023-03-01T01:20:36.267Z,994.4
2023-03-01T01:39:52.098Z,994.3
2023-03-01T01:59:10.291Z,994.1
2023-03-01T02:18:27.485Z,994
2023-03-01T02:37:42.635Z,993.9
2023-03-01T02:56:57.908Z,993.7
2023-03-01T03:16:17.435Z,993.6
2023-03-01T03:35:34.583Z,993.5
2023-03-01T03:54:50.918Z,993.3
2023-03-01T04:14:07.814Z,993.2
2023-03-01T04:33:23.665Z,993.1
2023-03-01T04:52:41.934Z,993
2023-03-01T05:11:59.534Z,993.1
2023-03-01T05:31:17.592Z,993.1
2023-03-01T05:50:34.157Z,993.1
2023-03-01T06:09:51.432Z,993.1
2023-03-01T06:29:04.636Z,993.1
2023-03-01T06:48:23.346Z,993
2023-03-01T07:07:42.380Z,992.9
2023-03-01T07:26:59.632Z,992.6
2023-03-01T07:46:18.838Z,992.7
2023-03-01T08:05:38.420Z,992.6
2023-03-01T08:24:58.721Z,992.6
2023-03-01T08:44:53.579Z,992.4
2023-03-01T09:04:03.712Z,992.4
2023-03-01T09:23:20.045Z,992.3
2023-03-01T09:42:42.210Z,992.1
2023-03-01T10:02:16.440Z,992
2023-03-01T10:21:20.448Z,991.8
2023-03-01T10:40:37.084Z,991.6
2023-03-01T10:59:50.976Z,991.3
2023-03-01T11:19:10.208Z,991.1
2023-03-01T11:38:29.693Z,990.9
2023-03-01T11:57:48.771Z,990.6
2023-03-01T12:17:09.718Z,990.3
2023-03-01T12:36:27.486Z,990.1
2023-03-01T12:55:47.159Z,990
2023-03-01T13:15:09.445Z,989.7
2023-03-01T13:34:26.876Z,989.6
2023-03-01T13:53:46.679Z,989.4
2023-03-01T14:13:16.796Z,989.3
2023-03-01T14:32:25.407Z,989.1
2023-03-01T14:51:42.864Z,988.9
2023-03-01T15:11:02.020Z,988.8
2023-03-01T15:30:09.843Z,988.7
2023-03-01T15:49:27.397Z,988.7
2023-03-01T16:08:42.844Z,988.5
2023-03-01T16:27:58.395Z,988.6
2023-03-01T16:47:14.345Z,988.7
2023-03-01T17:06:31.619Z,989
2023-03-01T17:25:47.120Z,989.1
2023-03-01T17:45:03.756Z,989.2
2023-03-01T18:04:20.573Z,989.4
2023-03-01T18:23:37.511Z,989.3
2023-03-01T18:42:53.636Z,988.9
2023-03-01T19:02:09.015Z,988.8
2023-03-01T19:21:24.858Z,988.8
2023-03-01T19:40:58.271Z,988.7
2023-03-01T20:00:08.848Z,988.7
2023-03-01T20:19:19.894Z,988.6
2023-03-01T20:38:36.911Z,988.6
2023-03-01T20:57:54.923Z,988.5
2023-03-01T21:17:14.083Z,988.7
2023-03-01T21:36:31.357Z,988.6
2023-03-01T21:55:52.096Z,988.7
2023-03-01T22:15:16.393Z,988.7
2023-03-01T22:34:22.730Z,988.6
2023-03-01T22:53:37.020Z,988.5
2023-03-01T23:12:50.735Z,988.5
2023-03-01T23:32:07.057Z,988.5
2023-03-01T23:51:24.169Z,988.5
